Time;durP1;ratioP1;P1;durP2;ratioP2;P2;SDS_P1;SDS_P2;PMS_P1;PMS_P2;Temp;Humidity;BMP_temperature;BMP_pressure;BME280_temperature;BME280_humidity;BME280_pressure;Samples;Min_cycle;Max_cycle;Signal;HPM_P1;HPM_P2
2024/01/12 00:02:16;;;;;;;51.92;17.48;;;2.70;61.30;;;;;;4998010;28;20054;-63
2024/01/12 00:04:46;;;;;;;44.17;15.15;;;2.80;61.40;;;;;;4998610;28;20137;-64
2024/01/12 00:07:14;;;;;;;55.97;16.92;;;2.90;61.50;;;;;;5001233;28;20814;-64
2024/01/12 00:09:44;;;;;;;61.10;16.75;;;3.00;61.40;;;;;;4993863;28;20057;-63
2024/01/12 00:12:13;;;;;;;43.10;14.45;;;3.10;61.20;;;;;;4989906;28;20072;-64
2024/01/12 00:14:43;;;;;;;48.22;16.48;;;3.10;61.10;;;;;;5006536;28;20052;-63
2024/01/12 00:17:13;;;;;;;75.07;18.88;;;3.20;61.10;;;;;;5037315;28;20046;-63
2024/01/12 00:19:42;;;;;;;65.32;17.30;;;3.20;61.00;;;;;;4993890;28;20054;-62
2024/01/12 00:22:13;;;;;;;68.03;16.90;;;3.30;61.10;;;;;;4993341;28;20133;-63
2024/01/12 00:24:42;;;;;;;55.47;13.98;;;3.40;61.10;;;;;;4991795;28;20046;-64
2024/01/12 00:27:10;;;;;;;43.47;16.33;;;3.40;61.00;;;;;;5011726;28;20141;-63
2024/01/12 00:29:39;;;;;;;30.35;10.93;;;3.50;61.00;;;;;;4998678;28;20507;-62
2024/01/12 00:32:07;;;;;;;40.70;15.63;;;3.50;60.70;;;;;;4989272;28;20069;-64
2024/01/12 00:34:36;;;;;;;56.70;16.63;;;3.50;60.70;;;;;;4990138;28;20108;-63
2024/01/12 00:37:05;;;;;;;64.93;17.13;;;3.50;60.80;;;;;;4993777;28;20084;-61
2024/01/12 00:39:35;;;;;;;44.05;15.30;;;3.50;60.80;;;;;;4999973;28;20058;-63
2024/01/12 00:42:04;;;;;;;44.17;14.23;;;3.60;60.90;;;;;;4994563;28;20214;-65
2024/01/12 00:44:32;;;;;;;53.15;14.65;;;3.60;60.90;;;;;;4989765;28;20054;-63
2024/01/12 00:47:01;;;;;;;58.08;18.02;;;3.50;60.80;;;;;;5002800;28;20104;-64
2024/01/12 00:49:29;;;;;;;60.60;18.23;;;3.60;60.90;;;;;;4985714;28;21644;-63
2024/01/12 00:51:57;;;;;;;59.85;17.85;;;3.60;61.00;;;;;;4994387;28;20117;-63
2024/01/12 00:54:27;;;;;;;54.45;15.90;;;3.60;60.90;;;;;;5002602;28;20073;-63
2024/01/12 00:56:56;;;;;;;51.13;18.75;;;3.60;61.00;;;;;;4995689;28;20053;-63
2024/01/12 00:59:25;;;;;;;70.32;21.83;;;3.60;61.00;;;;;;4988634;28;20136;-62
2024/01/12 01:01:57;;;;;;;71.88;20.48;;;3.70;61.00;;;;;;4999773;28;20057;-62
2024/01/12 01:04:26;;;;;;;60.38;16.25;;;3.70;60.90;;;;;;4996037;28;20065;-61
2024/01/12 01:06:55;;;;;;;42.55;14.68;;;3.70;61.10;;;;;;5003556;28;20135;-63
2024/01/12 01:09:24;;;;;;;64.38;16.60;;;3.70;61.00;;;;;;4989719;28;20092;-63
2024/01/12 01:11:53;;;;;;;63.10;16.63;;;3.70;60.80;;;;;;4994518;28;20081;-63
2024/01/12 01:14:24;;;;;;;61.38;16.58;;;3.70;60.70;;;;;;4998117;28;20068;-62
2024/01/12 01:16:54;;;;;;;55.03;19.25;;;3.60;60.70;;;;;;5001730;28;20085;-63
2024/01/12 01:19:23;;;;;;;43.50;14.60;;;3.60;60.70;;;;;;4993186;28;20057;-62
2024/01/12 01:21:52;;;;;;;26.63;12.25;;;3.60;60.60;;;;;;4993123;28;20142;-63
2024/01/12 01:24:20;;;;;;;49.92;19.13;;;3.60;60.70;;;;;;4991913;28;20606;-63
2024/01/12 01:26:59;;;;;;;72.85;18.73;;;3.50;60.70;;;;;;5003143;28;20082;-63
2024/01/12 01:29:33;;;;;;;72.45;15.80;;;3.60;60.80;;;;;;5006000;28;20072;-63
2024/01/12 01:33:10;;;;;;;51.72;15.25;;;3.60;60.80;;;;;;5002121;28;20555;-63
2024/01/12 01:35:44;;;;;;;51.40;19.27;;;3.60;60.90;;;;;;5005435;28;20167;-63
2024/01/12 01:38:14;;;;;;;61.08;14.68;;;3.60;60.80;;;;;;5002446;28;20062;-61
2024/01/12 01:40:43;;;;;;;42.65;14.60;;;3.60;60.80;;;;;;4997711;28;20143;-62
2024/01/12 01:43:12;;;;;;;55.92;17.77;;;3.60;61.00;;;;;;4992572;28;20583;-63
2024/01/12 01:45:42;;;;;;;43.28;13.18;;;3.60;61.10;;;;;;5000678;28;20052;-62
2024/01/12 01:48:11;;;;;;;61.42;17.90;;;3.70;61.20;;;;;;5009242;28;20045;-62
2024/01/12 01:50:39;;;;;;;42.50;14.43;;;3.70;61.30;;;;;;4997229;28;20058;-62
2024/01/12 01:53:08;;;;;;;39.05;13.65;;;3.70;61.10;;;;;;4993974;28;20069;-63
2024/01/12 01:55:37;;;;;;;67.40;17.63;;;3.70;60.90;;;;;;4998032;28;20087;-62
2024/01/12 01:58:05;;;;;;;63.35;18.30;;;3.70;60.80;;;;;;4992313;28;21802;-62
2024/01/12 02:00:34;;;;;;;68.00;19.80;;;3.70;60.70;;;;;;5028205;28;20077;-63
2024/01/12 02:03:04;;;;;;;51.05;16.40;;;3.70;60.70;;;;;;4994978;28;20531;-62
2024/01/12 02:05:36;;;;;;;75.28;18.02;;;3.70;60.70;;;;;;4998818;28;20061;-62
2024/01/12 02:08:05;;;;;;;46.58;16.35;;;3.70;60.70;;;;;;4986895;28;21767;-62
2024/01/12 02:10:34;;;;;;;59.58;17.88;;;3.70;60.90;;;;;;4997626;28;20037;-62
2024/01/12 02:13:03;;;;;;;67.65;13.27;;;3.70;61.00;;;;;;4989547;28;20054;-62
2024/01/12 02:15:32;;;;;;;73.18;18.55;;;3.70;61.00;;;;;;5002764;28;20052;-62
2024/01/12 02:18:01;;;;;;;46.38;12.25;;;3.60;61.00;;;;;;4981589;28;20046;-62
2024/01/12 02:20:30;;;;;;;60.35;15.65;;;3.60;61.20;;;;;;5014082;28;20073;-63
2024/01/12 02:23:00;;;;;;;63.30;20.58;;;3.60;61.30;;;;;;4992384;28;20527;-63
2024/01/12 02:25:28;;;;;;;52.70;17.92;;;3.60;61.20;;;;;;4987507;28;20066;-62
2024/01/12 02:27:57;;;;;;;45.08;16.10;;;3.50;61.00;;;;;;4984714;28;20056;-63
2024/01/12 02:30:25;;;;;;;52.30;16.90;;;3.50;60.90;;;;;;4999176;28;20084;-63
2024/01/12 02:32:54;;;;;;;48.38;13.95;;;3.40;60.80;;;;;;5000983;28;20053;-62
2024/01/12 02:35:23;;;;;;;52.63;13.25;;;3.30;60.70;;;;;;4996747;28;20152;-62
2024/01/12 02:37:51;;;;;;;68.25;18.17;;;3.30;60.70;;;;;;4986604;28;20077;-62
2024/01/12 02:40:21;;;;;;;54.15;14.80;;;3.20;60.60;;;;;;4989378;28;20166;-61
2024/01/12 02:42:49;;;;;;;55.97;14.98;;;3.10;60.70;;;;;;4997399;28;20068;-62
2024/01/12 02:45:17;;;;;;;38.72;12.68;;;3.00;60.60;;;;;;4993684;28;20058;-61
2024/01/12 02:47:46;;;;;;;55.55;14.38;;;2.90;60.70;;;;;;4995655;28;20624;-62
2024/01/12 02:50:15;;;;;;;36.72;13.75;;;2.90;60.80;;;;;;4997734;28;20503;-62
2024/01/12 02:52:44;;;;;;;65.85;14.15;;;2.90;60.90;;;;;;4995913;28;20061;-62
2024/01/12 02:55:12;;;;;;;53.42;13.07;;;2.90;61.00;;;;;;4989248;28;20471;-62
2024/01/12 02:57:42;;;;;;;37.67;15.05;;;2.90;61.00;;;;;;4998346;28;20054;-62
2024/01/12 03:00:11;;;;;;;62.42;14.93;;;2.90;61.10;;;;;;4991518;28;20053;-61
2024/01/12 03:02:40;;;;;;;36.22;14.43;;;2.90;61.30;;;;;;4994428;28;20061;-61
2024/01/12 03:05:09;;;;;;;57.08;14.85;;;2.90;61.40;;;;;;4994935;28;20094;-62
2024/01/12 03:07:37;;;;;;;50.17;12.38;;;2.90;61.30;;;;;;4994481;28;20061;-64
2024/01/12 03:10:06;;;;;;;49.13;12.63;;;2.80;61.20;;;;;;4986766;28;20061;-63
2024/01/12 03:12:35;;;;;;;41.53;14.70;;;2.80;61.30;;;;;;4988923;28;20073;-63
2024/01/12 03:15:05;;;;;;;56.10;16.52;;;2.80;61.30;;;;;;4986390;28;20146;-62
2024/01/12 03:17:33;;;;;;;46.05;13.88;;;2.80;61.40;;;;;;4988392;28;20790;-62
2024/01/12 03:20:02;;;;;;;50.67;13.20;;;2.80;61.40;;;;;;4986010;28;20715;-62
2024/01/12 03:22:31;;;;;;;62.17;16.25;;;2.80;61.40;;;;;;4990785;28;20466;-62
2024/01/12 03:24:59;;;;;;;48.75;17.60;;;2.80;62.20;;;;;;4994120;28;20527;-63
2024/01/12 03:27:28;;;;;;;56.35;17.98;;;2.80;61.40;;;;;;4988633;28;20081;-63
2024/01/12 03:29:56;;;;;;;45.67;15.25;;;2.80;61.50;;;;;;4994929;28;20061;-62
2024/01/12 03:32:26;;;;;;;41.58;14.52;;;2.80;61.50;;;;;;4994035;28;20057;-62
2024/01/12 03:34:55;;;;;;;59.92;18.00;;;2.80;61.40;;;;;;4998472;28;20050;-62
2024/01/12 03:37:23;;;;;;;52.38;15.52;;;2.90;61.50;;;;;;5009509;28;20050;-62
2024/01/12 03:39:51;;;;;;;48.58;14.77;;;2.80;61.30;;;;;;4999278;28;20053;-62
2024/01/12 03:42:19;;;;;;;37.22;11.68;;;2.80;61.20;;;;;;4992523;28;20061;-62
2024/01/12 03:44:48;;;;;;;49.10;18.00;;;2.80;61.20;;;;;;4989750;28;20546;-63
2024/01/12 03:47:16;;;;;;;39.75;13.40;;;2.80;61.30;;;;;;4988328;28;20089;-63
2024/01/12 03:49:46;;;;;;;37.38;12.73;;;2.80;61.40;;;;;;5005555;28;20070;-61
2024/01/12 03:52:15;;;;;;;45.08;16.10;;;2.90;61.30;;;;;;4993996;28;20065;-62
2024/01/12 03:54:44;;;;;;;55.78;17.60;;;2.80;61.10;;;;;;4995771;28;20052;-62
2024/01/12 03:57:12;;;;;;;49.90;15.30;;;2.80;61.30;;;;;;4989827;28;20058;-64
2024/01/12 03:59:41;;;;;;;55.33;11.23;;;2.80;61.20;;;;;;5002888;28;20123;-63
2024/01/12 04:02:10;;;;;;;52.95;15.10;;;2.80;61.30;;;;;;4981860;28;20073;-62
2024/01/12 04:04:38;;;;;;;28.63;13.55;;;2.70;61.20;;;;;;4988548;28;20046;-63
2024/01/12 04:07:08;;;;;;;60.88;13.40;;;2.70;61.30;;;;;;5003830;28;20600;-61
2024/01/12 04:09:40;;;;;;;44.70;12.18;;;2.70;61.40;;;;;;4996570;28;20056;-62
2024/01/12 04:12:10;;;;;;;44.70;9.15;;;2.70;61.50;;;;;;4992667;28;20074;-63
2024/01/12 04:14:38;;;;;;;53.55;13.48;;;2.70;61.50;;;;;;4990274;28;20329;-61
2024/01/12 04:17:07;;;;;;;41.03;10.02;;;2.70;61.50;;;;;;4994924;28;20062;-62
2024/01/12 04:19:35;;;;;;;44.67;13.65;;;2.80;61.70;;;;;;4999849;28;20443;-63
2024/01/12 04:22:04;;;;;;;28.17;11.77;;;2.90;61.70;;;;;;4983330;28;20335;-64
2024/01/12 04:24:34;;;;;;;46.50;12.70;;;3.00;61.70;;;;;;5010912;28;20038;-63
2024/01/12 04:27:03;;;;;;;23.88;7.85;;;3.10;61.70;;;;;;5015571;28;20042;-62
2024/01/12 04:29:31;;;;;;;54.35;17.10;;;3.10;61.50;;;;;;4995414;28;20438;-61
2024/01/12 04:31:59;;;;;;;43.53;13.15;;;3.10;61.30;;;;;;4988743;28;20062;-62
2024/01/12 04:34:27;;;;;;;37.13;11.82;;;3.10;61.30;;;;;;4998026;28;20045;-62
2024/01/12 04:36:56;;;;;;;54.50;11.38;;;3.10;61.20;;;;;;5002994;28;20115;-62
2024/01/12 04:39:24;;;;;;;29.38;10.50;;;3.20;61.30;;;;;;4995826;28;20864;-62
2024/01/12 04:41:54;;;;;;;38.90;8.80;;;3.10;61.10;;;;;;4987502;28;20133;-63
2024/01/12 04:44:22;;;;;;;33.28;11.90;;;3.10;61.10;;;;;;5013409;28;20422;-64
2024/01/12 04:46:51;;;;;;;32.97;11.15;;;3.10;62.00;;;;;;4998762;28;20077;-64
2024/01/12 04:49:19;;;;;;;30.05;10.07;;;3.20;61.50;;;;;;4993005;28;20064;-63
2024/01/12 04:51:49;;;;;;;39.47;15.30;;;3.30;61.50;;;;;;4989974;28;20045;-62
2024/01/12 04:54:17;;;;;;;33.88;12.32;;;3.50;61.50;;;;;;5000826;28;20053;-63
2024/01/12 04:56:45;;;;;;;40.70;12.95;;;3.50;61.30;;;;;;4998334;28;20044;-62
2024/01/12 04:59:15;;;;;;;60.97;14.05;;;3.50;61.10;;;;;;4989630;28;20058;-62
2024/01/12 05:01:44;;;;;;;44.42;14.60;;;3.60;61.20;;;;;;4984702;28;20208;-62
2024/01/12 05:04:12;;;;;;;46.65;16.15;;;3.60;61.10;;;;;;4994306;28;20087;-63
2024/01/12 05:06:41;;;;;;;64.70;18.25;;;3.60;61.00;;;;;;4990474;28;20080;-63
2024/01/12 05:09:09;;;;;;;38.67;15.15;;;3.60;61.00;;;;;;4994274;28;20053;-63
2024/01/12 05:11:38;;;;;;;47.45;13.50;;;3.70;61.00;;;;;;4996841;28;20050;-63
2024/01/12 05:14:07;;;;;;;29.02;13.05;;;3.70;61.00;;;;;;4998764;28;20049;-63
2024/01/12 05:16:36;;;;;;;41.33;12.65;;;3.70;60.90;;;;;;4998625;28;20149;-62
2024/01/12 05:19:04;;;;;;;39.63;13.88;;;3.70;60.80;;;;;;4998782;28;20058;-64
2024/01/12 05:21:33;;;;;;;62.08;17.30;;;3.70;60.80;;;;;;4997710;28;20128;-67
2024/01/12 05:24:02;;;;;;;42.75;14.25;;;3.70;60.90;;;;;;4993526;28;20080;-68
2024/01/12 05:26:30;;;;;;;56.72;16.70;;;3.70;60.90;;;;;;4992582;28;20140;-67
2024/01/12 05:28:59;;;;;;;29.98;12.10;;;3.70;60.90;;;;;;4997511;28;20049;-67
2024/01/12 05:31:27;;;;;;;50.45;15.52;;;3.70;61.10;;;;;;5000084;28;20116;-70
2024/01/12 05:33:57;;;;;;;50.15;15.98;;;3.70;60.90;;;;;;4991390;28;20058;-70
2024/01/12 05:36:26;;;;;;;50.53;14.07;;;3.70;61.60;;;;;;4996610;28;20069;-69
2024/01/12 05:38:54;;;;;;;71.53;20.75;;;3.60;61.10;;;;;;4987885;28;20050;-70
2024/01/12 05:41:22;;;;;;;75.88;16.63;;;3.60;60.90;;;;;;4994244;28;20058;-69
2024/01/12 05:43:51;;;;;;;44.65;13.18;;;3.70;61.00;;;;;;4993540;28;20077;-69
2024/01/12 05:46:20;;;;;;;46.10;13.75;;;3.80;61.10;;;;;;4993625;28;20379;-69
2024/01/12 05:48:48;;;;;;;59.72;15.40;;;3.80;61.00;;;;;;5009760;28;20064;-71
2024/01/12 05:51:19;;;;;;;61.78;14.90;;;3.80;61.00;;;;;;4993820;28;20523;-69
2024/01/12 05:53:47;;;;;;;57.45;17.90;;;3.80;61.70;;;;;;5011361;28;20133;-82
2024/01/12 05:56:16;;;;;;;44.83;13.93;;;3.80;61.00;;;;;;4989570;28;20172;-69
2024/01/12 05:58:44;;;;;;;63.88;17.60;;;3.80;60.90;;;;;;4999746;28;20072;-69
2024/01/12 06:01:13;;;;;;;52.72;16.67;;;3.80;60.90;;;;;;4993530;28;20054;-64
2024/01/12 06:03:42;;;;;;;32.15;12.77;;;3.80;60.90;;;;;;5001671;28;20419;-68
2024/01/12 06:06:11;;;;;;;51.65;15.73;;;3.80;61.00;;;;;;4991433;28;20140;-73
2024/01/12 06:08:42;;;;;;;45.67;13.02;;;3.80;61.80;;;;;;4997666;28;20051;-71
2024/01/12 06:11:11;;;;;;;60.10;14.18;;;3.80;61.00;;;;;;5006714;28;20062;-71
2024/01/12 06:13:40;;;;;;;54.22;16.90;;;3.90;61.00;;;;;;4993802;28;20066;-69
2024/01/12 06:16:09;;;;;;;47.03;14.38;;;3.90;60.90;;;;;;4993928;28;20053;-68
2024/01/12 06:18:38;;;;;;;41.75;13.65;;;3.90;60.90;;;;;;5002030;28;20045;-72
2024/01/12 06:21:07;;;;;;;66.72;14.15;;;3.90;60.80;;;;;;4991627;28;20057;-69
2024/01/12 06:23:36;;;;;;;38.95;16.05;;;4.00;61.80;;;;;;5007241;28;20495;-67
2024/01/12 06:26:06;;;;;;;41.72;12.43;;;4.00;60.80;;;;;;5018813;28;20104;-70
2024/01/12 06:28:34;;;;;;;35.97;14.98;;;4.00;60.70;;;;;;4994335;28;20050;-70
2024/01/12 06:31:03;;;;;;;41.58;15.10;;;4.00;60.70;;;;;;4996803;28;20061;-70
2024/01/12 06:33:33;;;;;;;53.85;16.20;;;4.00;60.70;;;;;;4995921;28;20136;-70
2024/01/12 06:36:02;;;;;;;47.42;13.95;;;4.10;60.70;;;;;;4991529;28;20050;-72
2024/01/12 06:38:32;;;;;;;39.20;14.35;;;4.10;60.70;;;;;;4992013;28;20136;-71
2024/01/12 06:41:02;;;;;;;65.88;15.98;;;4.10;60.60;;;;;;4993453;28;20773;-71
2024/01/12 06:43:32;;;;;;;45.38;14.73;;;4.20;60.70;;;;;;4994818;28;20085;-72
2024/01/12 06:46:00;;;;;;;27.63;13.38;;;4.10;60.50;;;;;;4984025;28;20046;-70
2024/01/12 06:48:29;;;;;;;52.95;15.27;;;4.10;60.60;;;;;;4995499;28;20482;-70
2024/01/12 06:50:57;;;;;;;27.77;9.55;;;4.10;60.70;;;;;;5001683;28;20072;-69
2024/01/12 06:53:26;;;;;;;47.72;13.50;;;4.10;61.60;;;;;;5001697;28;20081;-69
2024/01/12 06:55:54;;;;;;;38.42;15.43;;;4.10;61.00;;;;;;4995434;28;20572;-70
2024/01/12 06:58:23;;;;;;;44.70;14.77;;;4.10;60.90;;;;;;4997759;28;20635;-72
2024/01/12 07:00:53;;;;;;;27.23;12.63;;;4.10;60.90;;;;;;4995348;28;20053;-71
2024/01/12 07:03:21;;;;;;;60.53;15.77;;;4.10;60.80;;;;;;4993159;28;20092;-83
2024/01/12 07:05:49;;;;;;;34.72;14.60;;;4.10;60.60;;;;;;4987927;28;20054;-71
2024/01/12 07:08:18;;;;;;;37.80;13.13;;;4.10;60.70;;;;;;4991756;28;20057;-71
2024/01/12 07:10:46;;;;;;;59.05;12.93;;;4.10;60.70;;;;;;4997405;28;20087;-69
2024/01/12 07:13:15;;;;;;;54.70;16.92;;;4.10;60.70;;;;;;4991644;28;20050;-68
2024/01/12 07:15:43;;;;;;;52.00;14.50;;;4.10;60.70;;;;;;4992835;28;20123;-73
2024/01/12 07:18:14;;;;;;;51.35;13.10;;;4.20;60.70;;;;;;4995258;28;20161;-70
2024/01/12 07:20:43;;;;;;;44.22;15.07;;;4.20;60.50;;;;;;5000754;28;20049;-70
2024/01/12 07:23:11;;;;;;;40.90;15.32;;;4.20;60.50;;;;;;5010649;28;20045;-70
2024/01/12 07:25:39;;;;;;;48.55;14.70;;;4.20;60.60;;;;;;4990452;28;20188;-69
2024/01/12 07:28:08;;;;;;;61.58;14.63;;;4.20;60.60;;;;;;4991381;28;21242;-70
2024/01/12 07:30:36;;;;;;;65.85;18.15;;;4.20;60.50;;;;;;4995602;28;20615;-71
2024/01/12 07:33:05;;;;;;;41.40;14.05;;;4.20;60.50;;;;;;4995600;28;20054;-70
2024/01/12 07:35:35;;;;;;;43.42;14.85;;;4.30;60.60;;;;;;4987332;28;20065;-71
2024/01/12 07:38:03;;;;;;;41.78;12.93;;;4.30;60.60;;;;;;4996688;28;20446;-81
2024/01/12 07:40:32;;;;;;;40.00;14.13;;;4.40;60.70;;;;;;4994802;28;20427;-71
2024/01/12 07:43:03;;;;;;;41.95;13.15;;;4.40;60.70;;;;;;5007932;28;20054;-72
2024/01/12 07:45:32;;;;;;;41.90;14.63;;;4.50;60.70;;;;;;4986618;28;20046;-68
2024/01/12 07:48:01;;;;;;;53.60;14.70;;;4.50;60.50;;;;;;4985406;28;20065;-70
2024/01/12 07:50:29;;;;;;;59.35;13.68;;;4.60;60.50;;;;;;4994682;28;20053;-70
2024/01/12 07:52:59;;;;;;;51.67;15.70;;;4.60;60.50;;;;;;4997128;28;20071;-70
2024/01/12 07:55:28;;;;;;;46.50;15.90;;;4.70;60.60;;;;;;4993051;28;20054;-69
2024/01/12 07:57:56;;;;;;;32.78;11.93;;;4.70;60.50;;;;;;4987442;28;20144;-68
2024/01/12 08:00:25;;;;;;;46.20;15.63;;;4.70;60.30;;;;;;4995389;28;20046;-69
2024/01/12 08:02:54;;;;;;;49.10;15.07;;;4.80;60.50;;;;;;5015592;28;20052;-70
2024/01/12 08:05:23;;;;;;;49.35;17.77;;;4.80;60.60;;;;;;4996447;28;20085;-66
2024/01/12 08:07:53;;;;;;;69.00;19.55;;;5.00;60.80;;;;;;4993697;28;20855;-69
2024/01/12 08:10:23;;;;;;;49.85;17.35;;;5.10;60.60;;;;;;4993457;28;20061;-70
2024/01/12 08:12:51;;;;;;;35.28;14.00;;;5.10;60.40;;;;;;4987529;28;20504;-69
2024/01/12 08:15:19;;;;;;;54.15;16.02;;;5.20;60.30;;;;;;5026002;28;20049;-69
2024/01/12 08:17:48;;;;;;;52.42;13.77;;;5.20;60.30;;;;;;4982467;28;20454;-69
2024/01/12 08:20:16;;;;;;;64.00;19.10;;;5.30;60.30;;;;;;4995323;28;20065;-69
2024/01/12 08:22:45;;;;;;;40.75;14.60;;;5.30;60.30;;;;;;4994213;28;20082;-69
2024/01/12 08:25:13;;;;;;;43.53;13.23;;;5.30;60.30;;;;;;4995373;28;20049;-68
2024/01/12 08:27:43;;;;;;;50.38;18.05;;;5.30;60.30;;;;;;4998895;28;20069;-70
2024/01/12 08:30:11;;;;;;;55.30;15.50;;;5.30;60.50;;;;;;4988448;28;20081;-71
2024/01/12 08:32:40;;;;;;;90.10;21.63;;;5.40;60.40;;;;;;4998601;28;20060;-75
2024/01/12 08:35:12;;;;;;;64.65;14.80;;;5.40;60.30;;;;;;4990084;28;20614;-71
2024/01/12 08:37:41;;;;;;;42.75;12.02;;;5.50;60.30;;;;;;4989912;28;20062;-71
2024/01/12 08:40:10;;;;;;;34.30;14.98;;;5.60;60.30;;;;;;4987914;28;20062;-70
2024/01/12 08:42:39;;;;;;;43.22;13.23;;;5.60;60.10;;;;;;4997861;28;20109;-70
2024/01/12 08:45:09;;;;;;;37.42;14.13;;;5.70;60.00;;;;;;4999965;28;20120;-70
2024/01/12 08:47:38;;;;;;;56.08;15.40;;;5.70;60.00;;;;;;5024697;28;20113;-69
2024/01/12 08:50:07;;;;;;;38.58;12.55;;;5.80;60.00;;;;;;5000152;28;20042;-69
2024/01/12 08:52:35;;;;;;;55.28;16.65;;;5.80;60.10;;;;;;4997927;28;20131;-68
2024/01/12 08:55:07;;;;;;;45.65;15.00;;;5.90;60.00;;;;;;4999189;28;20484;-76
2024/01/12 08:57:36;;;;;;;34.83;14.10;;;6.00;60.90;;;;;;4993142;28;20074;-69
2024/01/12 09:00:05;;;;;;;37.45;14.00;;;6.00;59.70;;;;;;4987609;28;20045;-70
2024/01/12 09:02:35;;;;;;;44.33;13.85;;;6.00;59.60;;;;;;4997599;28;20108;-70
2024/01/12 09:05:03;;;;;;;35.00;12.73;;;6.00;59.60;;;;;;4999633;28;20061;-73
2024/01/12 09:07:32;;;;;;;41.53;13.10;;;5.90;59.70;;;;;;4999092;28;20053;-69
2024/01/12 09:10:02;;;;;;;39.88;12.95;;;5.90;59.80;;;;;;4988181;28;20682;-71
2024/01/12 09:12:31;;;;;;;39.25;13.40;;;5.90;59.90;;;;;;5021036;28;20050;-71
2024/01/12 09:14:59;;;;;;;42.17;14.32;;;5.80;59.70;;;;;;5018861;28;20053;-69
2024/01/12 09:17:28;;;;;;;36.92;13.77;;;5.70;59.70;;;;;;4993835;28;20057;-68
2024/01/12 09:19:58;;;;;;;60.33;14.65;;;5.60;59.60;;;;;;4985707;28;20057;-70
2024/01/12 09:22:26;;;;;;;35.38;14.43;;;5.60;59.80;;;;;;4995308;28;20483;-68
2024/01/12 09:24:54;;;;;;;36.65;13.35;;;5.50;59.80;;;;;;4991701;28;20112;-69
2024/01/12 09:27:23;;;;;;;56.05;16.13;;;5.50;59.80;;;;;;4999474;28;20065;-70
2024/01/12 09:29:52;;;;;;;47.13;15.35;;;5.50;60.00;;;;;;4989558;28;20514;-72
2024/01/12 09:32:21;;;;;;;33.08;11.60;;;5.40;59.70;;;;;;4993351;28;20758;-71
2024/01/12 09:34:49;;;;;;;24.25;11.20;;;5.50;60.10;;;;;;4992725;28;20054;-69
2024/01/12 09:37:19;;;;;;;42.30;14.27;;;5.50;59.80;;;;;;4996339;28;20088;-68
2024/01/12 09:39:48;;;;;;;28.23;10.70;;;5.50;59.80;;;;;;5004608;28;20481;-70
2024/01/12 09:42:17;;;;;;;45.53;14.20;;;5.60;60.00;;;;;;4992210;28;20129;-71
2024/01/12 09:44:51;;;;;;;37.50;12.68;;;5.70;60.20;;;;;;5009069;28;20065;-71
2024/01/12 09:47:33;;;;;;;37.67;14.68;;;6.00;60.90;;;;;;4994961;28;20500;-70
2024/01/12 09:50:03;;;;;;;42.17;12.73;;;6.30;60.50;;;;;;4988313;28;20107;-70
2024/01/12 09:52:34;;;;;;;37.50;14.27;;;6.50;60.20;;;;;;4991995;28;20137;-72
2024/01/12 09:55:02;;;;;;;47.67;13.40;;;6.80;60.10;;;;;;4989096;28;20058;-69
2024/01/12 09:57:31;;;;;;;39.75;13.23;;;7.10;60.10;;;;;;4987957;28;20065;-76
2024/01/12 10:00:02;;;;;;;42.83;13.23;;;7.30;59.80;;;;;;4986507;28;21201;-69
2024/01/12 10:02:35;;;;;;;57.20;14.20;;;7.50;59.60;;;;;;4992426;28;20062;-69
2024/01/12 10:05:03;;;;;;;31.42;13.88;;;7.70;59.50;;;;;;4990072;28;20054;-70
2024/01/12 10:07:33;;;;;;;30.58;12.70;;;7.80;59.30;;;;;;4995687;28;20053;-69
2024/01/12 10:10:01;;;;;;;83.85;15.00;;;8.00;59.20;;;;;;4985971;28;20065;-69
2024/01/12 10:12:29;;;;;;;56.63;13.55;;;8.10;59.10;;;;;;4989055;28;20157;-70
2024/01/12 10:15:02;;;;;;;63.85;15.63;;;8.20;59.00;;;;;;4992334;28;20046;-70
2024/01/12 10:17:31;;;;;;;36.38;13.90;;;8.30;58.80;;;;;;4993274;28;20081;-70
2024/01/12 10:20:00;;;;;;;35.80;12.02;;;8.40;58.70;;;;;;4983070;28;20054;-69
2024/01/12 10:22:29;;;;;;;47.60;14.55;;;8.50;58.60;;;;;;4989654;28;20058;-70
2024/01/12 10:25:00;;;;;;;79.38;17.85;;;8.50;58.50;;;;;;5012640;28;20107;-70
2024/01/12 10:27:28;;;;;;;40.22;15.05;;;8.50;58.50;;;;;;4995262;28;20144;-79
2024/01/12 10:29:57;;;;;;;69.70;18.80;;;8.60;58.60;;;;;;4984287;28;20062;-71
2024/01/12 10:32:27;;;;;;;60.50;20.63;;;8.60;58.80;;;;;;5019517;28;20496;-70
2024/01/12 10:34:55;;;;;;;84.22;18.40;;;8.70;59.20;;;;;;4992419;28;20085;-70
2024/01/12 10:37:23;;;;;;;54.00;16.33;;;8.80;58.60;;;;;;4990399;28;20137;-72
2024/01/12 10:39:53;;;;;;;55.95;16.73;;;8.90;58.60;;;;;;4982408;28;20072;-71
2024/01/12 10:42:25;;;;;;;74.80;18.00;;;9.10;58.50;;;;;;5019443;28;20153;-69
2024/01/12 10:45:00;;;;;;;102.55;18.63;;;9.50;59.20;;;;;;5000360;28;20049;-71
2024/01/12 10:47:32;;;;;;;45.15;16.88;;;10.20;58.70;;;;;;4987759;28;20169;-69
2024/01/12 10:50:05;;;;;;;78.25;18.38;;;10.70;57.60;;;;;;4987189;28;20153;-72
2024/01/12 10:53:00;;;;;;;74.03;19.35;;;11.30;57.40;;;;;;4996545;28;20053;-83
2024/01/12 10:55:34;;;;;;;79.00;20.02;;;11.80;56.10;;;;;;4991310;28;20068;-70
2024/01/12 10:58:04;;;;;;;45.75;17.40;;;11.90;55.50;;;;;;4991072;28;20054;-70
2024/01/12 11:00:33;;;;;;;76.57;22.58;;;11.90;55.30;;;;;;5007900;28;20046;-70
2024/01/12 11:03:03;;;;;;;95.60;22.67;;;12.10;55.50;;;;;;4993995;28;20053;-69
2024/01/12 11:05:33;;;;;;;66.30;20.45;;;12.30;55.00;;;;;;5000440;28;20050;-70
2024/01/12 11:08:02;;;;;;;77.40;20.70;;;12.20;54.20;;;;;;4981914;28;20057;-70
2024/01/12 11:10:33;;;;;;;104.28;22.88;;;12.00;54.40;;;;;;4992652;28;20116;-70
2024/01/12 11:13:01;;;;;;;68.03;21.20;;;11.70;54.30;;;;;;4992633;28;20045;-71
2024/01/12 11:15:32;;;;;;;75.05;22.58;;;11.30;54.40;;;;;;5002786;28;20045;-72
2024/01/12 11:18:01;;;;;;;63.95;20.23;;;10.80;54.50;;;;;;4992021;28;20080;-70
2024/01/12 11:20:30;;;;;;;57.50;20.33;;;10.40;55.10;;;;;;4952850;28;21306;-73
2024/01/12 11:23:00;;;;;;;67.38;20.55;;;10.20;56.10;;;;;;4990966;28;20082;-70
2024/01/12 11:25:28;;;;;;;59.13;21.42;;;10.20;56.30;;;;;;4998741;28;20061;-70
2024/01/12 11:27:57;;;;;;;60.70;20.65;;;10.20;56.20;;;;;;4994621;28;20745;-71
2024/01/12 11:30:29;;;;;;;70.30;22.58;;;10.10;56.00;;;;;;5003295;28;20144;-70
2024/01/12 11:33:06;;;;;;;82.47;24.08;;;9.90;56.00;;;;;;4996797;28;20054;-73
2024/01/12 11:35:37;;;;;;;98.85;23.52;;;9.70;56.20;;;;;;4994370;28;20050;-72
2024/01/12 11:38:08;;;;;;;70.82;21.15;;;9.50;56.60;;;;;;5015505;28;20042;-70
2024/01/12 11:40:37;;;;;;;67.55;19.80;;;9.40;56.50;;;;;;4987332;28;20108;-70
2024/01/12 11:43:07;;;;;;;64.57;18.58;;;9.20;56.70;;;;;;4998888;28;20061;-74
2024/01/12 11:45:39;;;;;;;71.50;20.27;;;9.00;56.90;;;;;;4992939;28;20112;-70
2024/01/12 11:48:14;;;;;;;58.45;19.05;;;8.90;57.10;;;;;;5019615;28;20056;-70
2024/01/12 11:50:43;;;;;;;67.85;20.58;;;8.80;57.20;;;;;;4989731;28;20522;-71
2024/01/12 11:53:13;;;;;;;73.68;20.92;;;8.70;57.20;;;;;;4999015;28;20503;-72
2024/01/12 11:55:41;;;;;;;63.00;18.88;;;8.60;57.40;;;;;;4995570;28;20064;-71
2024/01/12 11:58:11;;;;;;;72.63;20.38;;;8.60;57.60;;;;;;4984432;28;20149;-70
2024/01/12 12:00:40;;;;;;;65.00;19.65;;;8.60;57.70;;;;;;4989016;28;20072;-70
2024/01/12 12:03:11;;;;;;;61.08;20.83;;;8.50;57.60;;;;;;4990104;28;20675;-70
2024/01/12 12:05:39;;;;;;;67.45;21.77;;;8.50;57.50;;;;;;4984939;28;20059;-71
2024/01/12 12:08:08;;;;;;;68.45;20.17;;;8.30;57.30;;;;;;4984715;28;20062;-70
2024/01/12 12:10:38;;;;;;;77.13;20.92;;;8.10;57.50;;;;;;4986442;28;20054;-69
2024/01/12 12:13:14;;;;;;;61.17;21.75;;;8.10;57.80;;;;;;4993024;28;20073;-70
2024/01/12 12:15:42;;;;;;;62.28;20.63;;;8.10;57.90;;;;;;4989784;28;20058;-70
2024/01/12 12:18:15;;;;;;;87.43;21.77;;;8.10;58.00;;;;;;4991562;28;20088;-71
2024/01/12 12:20:44;;;;;;;87.10;22.92;;;8.30;58.20;;;;;;4996823;28;20135;-70
2024/01/12 12:23:13;;;;;;;71.00;20.45;;;8.60;58.40;;;;;;4993120;28;20094;-69
2024/01/12 12:25:44;;;;;;;76.80;24.40;;;8.80;58.30;;;;;;4992758;28;20053;-70
2024/01/12 12:28:13;;;;;;;90.95;23.38;;;9.00;58.00;;;;;;4991167;28;20061;-71
2024/01/12 12:30:41;;;;;;;59.03;22.05;;;9.10;57.80;;;;;;4987667;28;20149;-70
2024/01/12 12:33:13;;;;;;;68.35;21.90;;;9.20;57.50;;;;;;5010025;28;20081;-71
2024/01/12 12:35:42;;;;;;;81.32;23.30;;;9.20;57.30;;;;;;4983760;28;20580;-71
2024/01/12 12:38:10;;;;;;;63.70;22.73;;;9.00;57.00;;;;;;4986252;28;20050;-72
2024/01/12 12:40:39;;;;;;;75.68;20.55;;;8.90;57.40;;;;;;5011227;28;20064;-70
2024/01/12 12:43:07;;;;;;;94.63;23.88;;;8.60;57.20;;;;;;4985204;28;20062;-71
2024/01/12 12:45:37;;;;;;;83.88;25.15;;;8.50;57.40;;;;;;4987789;28;20076;-72
2024/01/12 12:48:06;;;;;;;77.40;25.70;;;8.50;57.70;;;;;;4987564;28;20137;-71